createdAt,value
2023-03-29T00:00:13.990Z,4.54
2023-03-29T00:05:22.811Z,4.60
2023-03-29T00:10:24.330Z,4.59
2023-03-29T00:15:26.143Z,4.60
2023-03-29T00:20:28.901Z,4.62
2023-03-29T00:25:30.472Z,4.63
2023-03-29T00:30:31.898Z,4.62
2023-03-29T00:35:33.962Z,4.62
2023-03-29T00:40:41.960Z,4.62
2023-03-29T00:45:43.455Z,4.65
2023-03-29T00:50:50.563Z,4.68
2023-03-29T00:55:57.846Z,4.74
2023-03-29T01:01:05.280Z,4.76
2023-03-29T01:06:09.147Z,4.74
2023-03-29T01:11:28.925Z,4.77
2023-03-29T01:16:35.748Z,4.78
2023-03-29T01:21:46.134Z,4.77
2023-03-29T01:27:16.896Z,4.74
2023-03-29T01:32:35.342Z,4.78
2023-03-29T01:37:42.561Z,4.82
2023-03-29T01:42:43.915Z,4.89
2023-03-29T01:47:59.959Z,4.94
2023-03-29T01:53:20.209Z,4.99
2023-03-29T01:58:31.392Z,5.02
2023-03-29T02:03:34.571Z,5.13
2023-03-29T02:08:37.074Z,5.14
2023-03-29T02:13:38.579Z,5.19
2023-03-29T02:18:42.728Z,5.26
2023-03-29T02:23:47.543Z,5.29
2023-03-29T02:28:49.152Z,5.22
2023-03-29T02:33:54.318Z,5.22
2023-03-29T02:38:56.821Z,5.19
2023-03-29T02:44:00.389Z,5.10
2023-03-29T02:49:01.959Z,5.06
2023-03-29T02:54:09.605Z,4.94
2023-03-29T02:59:12.257Z,4.88
2023-03-29T03:04:17.360Z,4.90
2023-03-29T03:09:19.098Z,4.92
2023-03-29T03:14:22.868Z,4.94
2023-03-29T03:19:24.841Z,4.96
2023-03-29T03:24:27.988Z,5.00
2023-03-29T03:29:29.860Z,4.98
2023-03-29T03:34:31.298Z,5.01
2023-03-29T03:39:33.358Z,5.02
2023-03-29T03:44:34.773Z,5.07
2023-03-29T03:49:36.686Z,5.06
2023-03-29T03:54:38.230Z,5.10
2023-03-29T03:59:39.620Z,5.12
2023-03-29T04:04:41.310Z,5.14
2023-03-29T04:09:43.164Z,5.21
2023-03-29T04:14:44.849Z,5.21
2023-03-29T04:19:46.250Z,5.23
2023-03-29T04:24:47.625Z,5.27
2023-03-29T04:29:49.020Z,5.34
2023-03-29T04:34:50.535Z,5.29
2023-03-29T04:39:52.540Z,5.32
2023-03-29T04:44:54.670Z,5.34
2023-03-29T04:49:56.240Z,5.28
2023-03-29T04:54:57.628Z,5.27
2023-03-29T04:59:59.007Z,5.34
2023-03-29T05:05:00.675Z,5.37
2023-03-29T05:10:02.217Z,5.36
2023-03-29T05:15:05.332Z,5.39
2023-03-29T05:20:11.710Z,5.42
2023-03-29T05:25:18.343Z,5.39
2023-03-29T05:30:19.880Z,5.43
2023-03-29T05:35:21.425Z,5.49
2023-03-29T05:40:26.188Z,5.47
2023-03-29T05:45:29.535Z,5.54
2023-03-29T05:50:38.717Z,5.52
2023-03-29T05:55:45.309Z,5.58
2023-03-29T06:00:49.619Z,5.59
2023-03-29T06:06:00.417Z,5.59
2023-03-29T06:11:08.932Z,5.71
2023-03-29T06:16:11.163Z,5.79
2023-03-29T06:21:15.008Z,5.90
2023-03-29T06:26:16.445Z,5.97
2023-03-29T06:31:17.963Z,6.05
2023-03-29T06:36:20.240Z,6.10
2023-03-29T06:41:21.741Z,6.17
2023-03-29T06:46:23.265Z,6.22
2023-03-29T06:51:24.884Z,6.29
2023-03-29T06:56:26.668Z,6.36
2023-03-29T07:01:28.642Z,6.37
2023-03-29T07:06:31.097Z,6.38
2023-03-29T07:11:36.844Z,6.48
2023-03-29T07:16:39.155Z,6.63
2023-03-29T07:21:41.084Z,6.74
2023-03-29T07:26:52.262Z,6.84
2023-03-29T07:32:02.318Z,6.99
2023-03-29T07:37:03.736Z,7.10
2023-03-29T07:42:05.148Z,7.17
2023-03-29T07:47:06.528Z,7.33
2023-03-29T07:52:08.706Z,7.45
2023-03-29T07:57:10.151Z,7.52
2023-03-29T08:02:11.654Z,7.57
2023-03-29T08:07:15.765Z,7.55
2023-03-29T08:12:18.463Z,7.63
2023-03-29T08:17:19.960Z,7.80
2023-03-29T08:22:22.022Z,7.80
2023-03-29T08:27:23.682Z,7.86
2023-03-29T08:32:25.343Z,8.21
2023-03-29T08:37:26.791Z,8.35
2023-03-29T08:42:59.743Z,8.47
2023-03-29T08:48:22.557Z,8.75
2023-03-29T08:53:50.165Z,8.80
2023-03-29T08:58:54.451Z,8.86
2023-03-29T09:04:12.968Z,8.96
2023-03-29T09:09:18.788Z,9.09
2023-03-29T09:14:51.627Z,8.83
2023-03-29T09:20:22.245Z,9.05
2023-03-29T09:25:53.033Z,9.21
2023-03-29T09:31:03.758Z,9.35
2023-03-29T09:36:39.914Z,9.53
2023-03-29T09:41:58.924Z,9.39
2023-03-29T09:47:11.645Z,9.59
2023-03-29T09:52:16.557Z,9.73
2023-03-29T09:57:19.566Z,9.72
2023-03-29T10:02:21.767Z,9.85
2023-03-29T10:07:23.504Z,9.98
2023-03-29T10:12:25.366Z,9.84
2023-03-29T10:17:34.145Z,10.11
2023-03-29T10:22:37.907Z,10.58
2023-03-29T10:27:42.183Z,10.63
2023-03-29T10:32:43.862Z,10.50
2023-03-29T10:37:49.700Z,10.46
2023-03-29T10:42:53.712Z,10.47
2023-03-29T10:47:57.865Z,10.25
2023-03-29T10:52:59.760Z,10.15
2023-03-29T10:58:16.690Z,9.97
2023-03-29T11:03:37.496Z,10.25
2023-03-29T11:08:58.544Z,10.24
2023-03-29T11:14:22.319Z,10.26
2023-03-29T11:19:40.077Z,10.50
2023-03-29T11:25:12.498Z,10.68
2023-03-29T11:30:30.565Z,10.75
2023-03-29T11:35:42.742Z,10.55
2023-03-29T11:40:59.825Z,10.72
2023-03-29T11:46:13.770Z,10.67
2023-03-29T11:51:32.255Z,10.81
2023-03-29T11:56:43.667Z,11.02
2023-03-29T12:01:59.893Z,10.93
2023-03-29T12:07:19.812Z,10.75
2023-03-29T12:12:47.540Z,10.64
2023-03-29T12:18:17.724Z,10.96
2023-03-29T12:23:19.331Z,10.95
2023-03-29T12:28:29.831Z,11.10
2023-03-29T12:33:50.624Z,10.88
2023-03-29T12:38:53.030Z,10.99
2023-03-29T12:44:02.065Z,11.05
2023-03-29T12:49:26.708Z,10.96
2023-03-29T12:54:31.856Z,10.88
2023-03-29T12:59:43.327Z,10.86
2023-03-29T13:04:54.789Z,10.99
2023-03-29T13:10:08.193Z,11.17
2023-03-29T13:15:16.773Z,11.40
2023-03-29T13:20:32.301Z,11.73
2023-03-29T13:25:55.564Z,11.89
2023-03-29T13:31:08.576Z,11.75
2023-03-29T13:36:47.623Z,11.68
2023-03-29T13:41:52.670Z,11.80
2023-03-29T13:47:13.360Z,11.71
2023-03-29T13:52:31.358Z,11.76
2023-03-29T13:57:39.486Z,11.75
2023-03-29T14:02:49.684Z,11.86
2023-03-29T14:07:53.326Z,11.90
2023-03-29T14:12:56.720Z,11.94
2023-03-29T14:18:00.774Z,11.95
2023-03-29T14:23:09.826Z,12.24
2023-03-29T14:28:23.187Z,12.30
2023-03-29T14:33:27.283Z,12.34
2023-03-29T14:38:29.396Z,12.45
2023-03-29T14:43:32.130Z,12.49
2023-03-29T14:48:35.604Z,12.73
2023-03-29T14:53:38.967Z,12.68
2023-03-29T14:58:46.526Z,12.85
2023-03-29T15:03:56.320Z,13.02
2023-03-29T15:09:05.845Z,13.12
2023-03-29T15:14:14.344Z,13.22
2023-03-29T15:19:20.393Z,13.32
2023-03-29T15:24:29.457Z,13.28
2023-03-29T15:29:42.721Z,13.22
2023-03-29T15:34:44.176Z,13.30
2023-03-29T15:39:45.652Z,13.32
2023-03-29T15:44:47.120Z,13.36
2023-03-29T15:49:48.581Z,13.26
2023-03-29T15:54:50.251Z,13.21
2023-03-29T15:59:51.874Z,13.19
2023-03-29T16:04:53.585Z,13.20
2023-03-29T16:09:55.025Z,13.19
2023-03-29T16:14:56.519Z,13.30
2023-03-29T16:19:57.989Z,13.08
2023-03-29T16:24:59.465Z,13.15
2023-03-29T16:30:01.111Z,13.09
2023-03-29T16:35:04.528Z,13.11
2023-03-29T16:40:07.743Z,12.99
2023-03-29T16:45:13.741Z,12.92
2023-03-29T16:50:18.855Z,12.91
2023-03-29T16:55:20.619Z,12.89
2023-03-29T17:00:22.258Z,12.80
2023-03-29T17:05:25.283Z,12.70
2023-03-29T17:10:26.753Z,12.62
2023-03-29T17:15:28.537Z,12.53
2023-03-29T17:20:30.107Z,12.51
2023-03-29T17:25:32.818Z,12.35
2023-03-29T17:30:35.103Z,12.33
2023-03-29T17:35:39.523Z,12.30
2023-03-29T17:40:41.304Z,12.23
2023-03-29T17:45:42.873Z,12.26
2023-03-29T17:50:44.440Z,12.13
2023-03-29T17:55:46.023Z,12.02
2023-03-29T18:00:47.598Z,11.94
2023-03-29T18:05:49.310Z,11.82
2023-03-29T18:10:50.764Z,11.78
2023-03-29T18:15:56.675Z,11.72
2023-03-29T18:20:58.615Z,11.69
2023-03-29T18:26:03.728Z,11.64
2023-03-29T18:31:05.918Z,11.65
2023-03-29T18:36:11.900Z,11.48
2023-03-29T18:41:14.751Z,11.31
2023-03-29T18:46:16.550Z,11.28
2023-03-29T18:51:18.092Z,11.25
2023-03-29T18:56:19.699Z,11.33
2023-03-29T19:01:21.813Z,11.06
2023-03-29T19:06:23.473Z,10.93
2023-03-29T19:11:29.065Z,10.78
2023-03-29T19:16:33.225Z,10.75
2023-03-29T19:21:34.720Z,10.65
2023-03-29T19:26:42.045Z,10.63
2023-03-29T19:31:43.664Z,10.51
2023-03-29T19:36:46.867Z,10.33
2023-03-29T19:41:49.212Z,10.39
2023-03-29T19:46:53.268Z,10.37
2023-03-29T19:51:58.310Z,10.52
2023-03-29T19:57:00.036Z,10.47
2023-03-29T20:02:04.188Z,10.56
2023-03-29T20:07:05.801Z,10.51
2023-03-29T20:12:07.574Z,10.46
2023-03-29T20:17:10.692Z,10.78
2023-03-29T20:22:12.340Z,10.67
2023-03-29T20:27:13.874Z,10.84
2023-03-29T20:32:18.259Z,10.83
2023-03-29T20:37:23.095Z,11.15
2023-03-29T20:42:28.733Z,11.23
2023-03-29T20:47:30.573Z,11.21
2023-03-29T20:52:33.319Z,10.94
2023-03-29T20:57:36.823Z,11.15
2023-03-29T21:02:39.617Z,11.14
2023-03-29T21:07:42.360Z,11.11
2023-03-29T21:12:43.833Z,10.83
2023-03-29T21:17:46.055Z,10.94
2023-03-29T21:22:48.010Z,11.08
2023-03-29T21:27:49.478Z,11.12
2023-03-29T21:32:58.710Z,10.95
2023-03-29T21:38:05.734Z,11.11
2023-03-29T21:43:07.278Z,10.97
2023-03-29T21:48:09.485Z,11.10
2023-03-29T21:53:11.150Z,10.80
2023-03-29T21:58:12.537Z,10.91
2023-03-29T22:03:16.409Z,10.99
2023-03-29T22:08:17.971Z,11.11
2023-03-29T22:13:19.463Z,11.11
2023-03-29T22:18:22.367Z,11.20
2023-03-29T22:23:24.924Z,11.19
2023-03-29T22:28:26.422Z,11.10
2023-03-29T22:33:27.890Z,11.06
2023-03-29T22:38:29.579Z,11.09
2023-03-29T22:43:31.054Z,10.92
2023-03-29T22:48:32.899Z,11.22
2023-03-29T22:53:34.781Z,11.41
2023-03-29T22:58:37.526Z,11.39
2023-03-29T23:03:39.222Z,11.24
2023-03-29T23:08:40.920Z,11.12
2023-03-29T23:13:42.335Z,11.13
2023-03-29T23:18:43.840Z,11.25
2023-03-29T23:23:45.214Z,11.10
2023-03-29T23:28:46.870Z,11.25
2023-03-29T23:33:49.452Z,11.20
2023-03-29T23:38:51.364Z,11.29
2023-03-29T23:43:53.528Z,11.14
2023-03-29T23:48:55.213Z,11.13
2023-03-29T23:53:56.974Z,11.27
2023-03-29T23:58:58.684Z,11.40
